MSC Eleni — H3BQ — position and weather

sailwx.info

Track history (hours):
 
Tides and Currents Weather Stations Pressure Air Temp Water Temp Dewpoint Dewpoint Depression Visibility Wind Speed Wind Dir Waves Ship Positions

MSC Eleni

Last reported at 2018-Feb-11 04:06 UTC. Time now 2018-Feb-20 05:47 UTC.
Position N 35°56' W 025°39'.
Warning: this ship's position is 9 days out of date.

Length 294 m; draft 12.2 m.

Type: Ship (hazmat cat A). MMSI: 357067000.

Date/timePositionNaut miles runAvg speedWind from/ knotsBaromVisibWave heightAir tempDewpointWater temp
2018-Feb-11 04:06N 35°56' W 025°39'218.4
2018-Feb-11 04:00N 35°57' W 025°37'918.0
2018-Feb-11 03:30N 35°59' W 025°26'917.9
2018-Feb-11 03:01N 36°00' W 025°15'917.8
2018-Feb-11 02:30N 36°02' W 025°04'917.9
2018-Feb-11 02:00N 36°04' W 024°53'917.7
2018-Feb-11 01:30N 36°06' W 024°43'917.8
2018-Feb-11 01:00N 36°08' W 024°32'917.8
2018-Feb-11 00:30N 36°10' W 024°21'918.0
2018-Feb-11 00:00N 36°12' W 024°10'917.4
2018-Feb-10 23:30N 36°14' W 023°60'3017.5
2018-Feb-10 21:47N 36°20' W 023°23'67617.9
2018-Feb-09 08:01N 37°51' W 009°24'2613.2
2018-Feb-09 06:00N 37°56' W 008°51'1 0.1
2018-Feb-08 13:30N 37°55' W 008°50'2 3.5
2018-Feb-08 13:00N 37°53' W 008°51'5 9.9
2018-Feb-08 12:30N 37°49' W 008°55'5 9.4
2018-Feb-08 12:00N 37°45' W 008°56'1 1.1
2018-Feb-08 11:30N 37°45' W 008°56'0 0.9
2018-Feb-08 11:00N 37°45' W 008°57'0 0.9
2018-Feb-08 10:30N 37°46' W 008°57'1 1.2
2018-Feb-08 09:30N 37°47' W 008°57'1 1.4
2018-Feb-08 09:00N 37°48' W 008°58'1 1.3
2018-Feb-08 08:30N 37°48' W 008°58'2 1.2
2018-Feb-08 07:00N 37°50' W 008°58'1 1.4
2018-Feb-08 06:30N 37°51' W 008°59'1 2.4
2018-Feb-08 06:00N 37°49' W 008°59'2 3.8
2018-Feb-08 05:30N 37°48' W 008°59'2 4.1
2018-Feb-08 05:00N 37°45' W 008°59'1 2.6
2018-Feb-08 04:30N 37°45' W 008°58'3 6.4
2018-Feb-08 04:00N 37°48' W 008°58'7 6.6
2018-Feb-08 03:00N 37°54' W 009°01'3 6.0
2018-Feb-08 02:30N 37°57' W 009°03'6 6.3
2018-Feb-08 01:30N 38°01' W 009°09'3 6.2
2018-Feb-08 01:00N 38°02' W 009°13'3 6.5
2018-Feb-08 00:30N 38°03' W 009°17'3 6.2
2018-Feb-08 00:00N 38°05' W 009°20'3 6.1
2018-Feb-07 23:30N 38°06' W 009°24'3 6.1
2018-Feb-07 23:00N 38°07' W 009°27'3 6.2
2018-Feb-07 22:30N 38°09' W 009°31'3 6.3
2018-Feb-07 22:00N 38°10' W 009°34'3 6.1
2018-Feb-07 21:31N 38°12' W 009°38'  
2018-Feb-05 13:59N 48°54' W 005°47'10619.4
2018-Feb-05 08:31N 49°48' W 003°26'018.6
2018-Feb-05 08:30N 49°48' W 003°26'1018.6
2018-Feb-05 07:58N 49°52' W 003°12'919.2
2018-Feb-05 07:31N 49°57' W 003°01'1019.6
2018-Feb-05 06:59N 50°00' W 002°46'1121.0
2018-Feb-05 06:28N 50°03' W 002°29'2222.7
2018-Feb-05 05:30N 50°09' W 001°57'1223.6
2018-Feb-05 05:00N 50°12' W 001°39'1223.4
2018-Feb-05 04:31N 50°14' W 001°21'2322.3
2018-Feb-05 03:28N 50°23' W 000°47'1720.6
2018-Feb-05 02:38N 50°26' W 000°20'320.3
2018-Feb-05 02:30N 50°27' W 000°16'1019.8
2018-Feb-05 02:00N 50°29' W 000°02'1019.2
2018-Feb-05 01:30N 50°32' E 000°13'918.2
2018-Feb-05 01:00N 50°35' E 000°26'816.2
2018-Feb-05 00:30N 50°38' E 000°38'917.3
2018-Feb-05 00:00N 50°43' E 000°49'918.1
2018-Feb-04 23:30N 50°48' E 001°01'918.3
2018-Feb-04 23:00N 50°55' E 001°12'1019.7
2018-Feb-04 22:30N 51°01' E 001°22'1020.7
2018-Feb-04 22:00N 51°08' E 001°35'1020.8
2018-Feb-04 21:30N 51°15' E 001°48'1020.0
2018-Feb-04 21:00N 51°23' E 001°55'1918.7
2018-Feb-04 20:01N 51°38' E 002°14'917.9
2018-Feb-04 19:30N 51°45' E 002°24'11217.6
2018-Feb-04 13:10N 53°09' E 004°23'319.7
2018-Feb-04 13:00N 53°12' E 004°26'12618.1
2018-Feb-04 06:02N 54°02' E 007°42'318.9
2018-Feb-04 05:54N 54°02' E 007°46'718.6
2018-Feb-04 05:30N 54°01' E 007°59'714.9
2018-Feb-04 05:00N 54°00' E 008°11'816.0
2018-Feb-04 04:30N 53°59' E 008°25'918.0
2018-Feb-04 04:00N 53°57' E 008°39'612.3
2018-Feb-04 03:30N 53°51' E 008°45'611.4
2018-Feb-04 03:00N 53°51' E 008°54'612.1
2018-Feb-04 02:30N 53°52' E 009°04'4 8.3
2018-Feb-04 02:01N 53°53' E 009°11'4 8.5
2018-Feb-04 01:31N 53°52' E 009°18'510.6
2018-Feb-04 01:01N 53°47' E 009°23'5 9.4
2018-Feb-04 00:31N 53°43' E 009°28'510.1
2018-Feb-04 00:01N 53°39' E 009°31'612.1
2018-Feb-03 23:31N 53°34' E 009°38'510.2
2018-Feb-03 23:01N 53°34' E 009°47'4 8.7
2018-Feb-03 22:31N 53°32' E 009°54'1 2.0
2018-Feb-03 22:01N 53°32' E 009°55'0 0.0
2018-Feb-03 21:30N 53°32' E 009°55'0 0.0
2018-Feb-03 21:00N 53°32' E 009°55'0 0.0
2018-Feb-03 20:30N 53°32' E 009°55'0 0.0
2018-Feb-03 20:00N 53°32' E 009°55'0 0.0
2018-Feb-03 18:30N 53°32' E 009°55'0 0.0
2018-Feb-03 18:00N 53°32' E 009°55'0 0.0
2018-Feb-03 17:30N 53°32' E 009°55'0 0.0
2018-Feb-03 17:00N 53°32' E 009°55'0 0.0
2018-Feb-03 16:00N 53°32' E 009°55'0 0.0
2018-Feb-03 15:30N 53°32' E 009°55'0 0.0
2018-Feb-03 15:00N 53°32' E 009°55'0 0.0
2018-Feb-03 14:30N 53°32' E 009°55'0 0.0
2018-Feb-03 14:00N 53°32' E 009°55'0 0.0
2018-Feb-03 13:30N 53°32' E 009°55'0 0.0
2018-Feb-03 13:00N 53°32' E 009°55'0 0.0
2018-Feb-03 12:30N 53°32' E 009°55'0 0.0
2018-Feb-03 12:00N 53°32' E 009°55'0 0.0
2018-Feb-03 11:30N 53°32' E 009°55'0 0.0
2018-Feb-03 11:00N 53°32' E 009°55'0 0.0
2018-Feb-03 10:30N 53°32' E 009°55'0 0.0
2018-Feb-03 10:00N 53°32' E 009°55'0 0.0
2018-Feb-03 09:30N 53°32' E 009°55'0 0.0
2018-Feb-03 09:00N 53°32' E 009°55'0 0.0
2018-Feb-03 08:30N 53°32' E 009°55'1 1.3
2018-Feb-03 08:01N 53°32' E 009°54'12 7.7
2018-Feb-03 06:30N 53°36' E 009°36'5 9.8
2018-Feb-03 06:00N 53°40' E 009°31'510.9
2018-Feb-03 05:30N 53°44' E 009°26'611.5
2018-Feb-03 05:00N 53°49' E 009°22'1111.1
2018-Feb-03 04:00N 53°52' E 009°03'714.4
2018-Feb-03 03:30N 53°50' E 008°51'2013.3
2018-Feb-03 02:00N 53°59' E 008°21'713.2
2018-Feb-03 01:30N 53°59' E 008°10'815.5
2018-Feb-03 01:00N 53°58' E 007°57'612.0
2018-Feb-03 00:30N 53°57' E 007°47'12318.1
2018-Feb-02 17:43N 53°12' E 004°35'420.9
2018-Feb-02 17:30N 53°08' E 004°32'1020.3
2018-Feb-02 17:01N 52°60' E 004°22'1020.1
2018-Feb-02 16:30N 52°51' E 004°14'2119.7
2018-Feb-02 15:26N 52°35' E 003°51'1819.0
2018-Feb-02 14:30N 52°19' E 003°37'1019.5
2018-Feb-02 14:01N 52°10' E 003°31'1318.8
2018-Feb-02 13:18N 51°58' E 003°23'618.7
2018-Feb-02 12:59N 51°52' E 003°21'1018.3
2018-Feb-02 12:27N 51°44' E 003°14'612.5
2018-Feb-02 12:01N 51°38' E 003°11'1 1.0
2018-Feb-02 11:30N 51°38' E 003°11'714.3
2018-Feb-02 11:00N 51°31' E 003°07'713.2
2018-Feb-02 10:31N 51°27' E 002°60'611.3
2018-Feb-02 10:00N 51°24' E 003°08'714.2
2018-Feb-02 09:30N 51°24' E 003°19'714.7
2018-Feb-02 09:00N 51°25' E 003°31'4 7.8
2018-Feb-02 08:30N 51°26' E 003°37'612.0
2018-Feb-02 08:01N 51°22' E 003°44'714.8
2018-Feb-02 07:30N 51°23' E 003°56'4 7.5
2018-Feb-02 07:01N 51°23' E 004°02'713.1
2018-Feb-02 06:31N 51°23' E 004°13'510.7
2018-Feb-02 06:00N 51°18' E 004°16'1 2.0
2018-Feb-02 05:30N 51°18' E 004°15'0 0.0
2018-Feb-02 04:59N 51°18' E 004°15'0 0.0
2018-Feb-02 04:29N 51°18' E 004°15'0 0.0
2018-Feb-02 03:56N 51°18' E 004°15'0 0.0
2018-Feb-02 03:30N 51°18' E 004°15'0 0.0
2018-Feb-02 03:00N 51°18' E 004°15'0 0.0
2018-Feb-02 02:30N 51°18' E 004°15'0 0.0
2018-Feb-02 02:00N 51°18' E 004°15'0 0.0
2018-Feb-02 01:30N 51°18' E 004°15'0 0.0
2018-Feb-02 01:01N 51°18' E 004°15'0 0.0
2018-Feb-02 00:30N 51°18' E 004°15'0 0.0
2018-Feb-02 00:00N 51°18' E 004°15'0 0.0
2018-Feb-01 23:30N 51°18' E 004°15'0 0.0
2018-Feb-01 23:00N 51°18' E 004°15'0 0.0
2018-Feb-01 22:00N 51°18' E 004°15'0 0.0
2018-Feb-01 21:30N 51°18' E 004°15'0 0.0
2018-Feb-01 19:30N 51°18' E 004°15'0 0.0
2018-Feb-01 19:01N 51°18' E 004°15'0 0.0
2018-Feb-01 18:30N 51°18' E 004°15'0 0.0
2018-Feb-01 18:00N 51°18' E 004°15'0 0.0
2018-Feb-01 17:30N 51°18' E 004°15'0 0.0
2018-Feb-01 17:00N 51°18' E 004°15'0 0.0
2018-Feb-01 16:31N 51°18' E 004°15'0 0.0
2018-Feb-01 16:00N 51°18' E 004°15'0 0.0
2018-Feb-01 15:30N 51°18' E 004°15'0 0.0
2018-Feb-01 15:00N 51°18' E 004°16'0 0.0
2018-Feb-01 13:30N 51°18' E 004°15'0 0.0
2018-Feb-01 13:00N 51°18' E 004°15'0 0.0
2018-Feb-01 12:30N 51°18' E 004°15'0 0.0
2018-Feb-01 12:00N 51°18' E 004°15'0 0.0
2018-Feb-01 11:00N 51°18' E 004°15'0 0.0
2018-Feb-01 10:30N 51°18' E 004°15'0 0.0
2018-Feb-01 10:00N 51°18' E 004°15'0 0.0
2018-Feb-01 09:30N 51°18' E 004°15'0 0.0
2018-Feb-01 09:00N 51°18' E 004°15'0 0.4
2018-Feb-01 08:30N 51°17' E 004°15'0 0.4
2018-Feb-01 07:25N 51°17' E 004°15'0 0.0
2018-Feb-01 06:58N 51°17' E 004°15'0 0.0
2018-Feb-01 06:28N 51°17' E 004°15'0 0.0
2018-Feb-01 05:58N 51°17' E 004°15'0 0.0
2018-Feb-01 05:22N 51°17' E 004°15'0 0.0
2018-Feb-01 04:55N 51°17' E 004°15'0 0.0
2018-Feb-01 04:25N 51°17' E 004°15'  
Track history (hours):
 
Tides and Currents Weather Stations Pressure Air Temp Water Temp Dewpoint Dewpoint Depression Visibility Wind Speed Wind Dir Waves Ship Positions

MSC Eleni

Last reported at 2018-Feb-11 04:06 UTC. Time now 2018-Feb-20 05:47 UTC.
Position N 35°56' W 025°39'.
Warning: this ship's position is 9 days out of date.

Length 294 m; draft 12.2 m.

Type: Ship (hazmat cat A). MMSI: 357067000.

Date/timePositionNaut miles runAvg speedWind from/ knotsBaromVisibWave heightAir tempDewpointWater temp
2018-Feb-11 04:06N 35°56' W 025°39'218.4
2018-Feb-11 04:00N 35°57' W 025°37'918.0
2018-Feb-11 03:30N 35°59' W 025°26'917.9
2018-Feb-11 03:01N 36°00' W 025°15'917.8
2018-Feb-11 02:30N 36°02' W 025°04'917.9
2018-Feb-11 02:00N 36°04' W 024°53'917.7
2018-Feb-11 01:30N 36°06' W 024°43'917.8
2018-Feb-11 01:00N 36°08' W 024°32'917.8
2018-Feb-11 00:30N 36°10' W 024°21'918.0
2018-Feb-11 00:00N 36°12' W 024°10'917.4
2018-Feb-10 23:30N 36°14' W 023°60'3017.5
2018-Feb-10 21:47N 36°20' W 023°23'67617.9
2018-Feb-09 08:01N 37°51' W 009°24'2613.2
2018-Feb-09 06:00N 37°56' W 008°51'1 0.1
2018-Feb-08 13:30N 37°55' W 008°50'2 3.5
2018-Feb-08 13:00N 37°53' W 008°51'5 9.9
2018-Feb-08 12:30N 37°49' W 008°55'5 9.4
2018-Feb-08 12:00N 37°45' W 008°56'1 1.1
2018-Feb-08 11:30N 37°45' W 008°56'0 0.9
2018-Feb-08 11:00N 37°45' W 008°57'0 0.9
2018-Feb-08 10:30N 37°46' W 008°57'1 1.2
2018-Feb-08 09:30N 37°47' W 008°57'1 1.4
2018-Feb-08 09:00N 37°48' W 008°58'1 1.3
2018-Feb-08 08:30N 37°48' W 008°58'2 1.2
2018-Feb-08 07:00N 37°50' W 008°58'1 1.4
2018-Feb-08 06:30N 37°51' W 008°59'1 2.4
2018-Feb-08 06:00N 37°49' W 008°59'2 3.8
2018-Feb-08 05:30N 37°48' W 008°59'2 4.1
2018-Feb-08 05:00N 37°45' W 008°59'1 2.6
2018-Feb-08 04:30N 37°45' W 008°58'3 6.4
2018-Feb-08 04:00N 37°48' W 008°58'7 6.6
2018-Feb-08 03:00N 37°54' W 009°01'3 6.0
2018-Feb-08 02:30N 37°57' W 009°03'6 6.3
2018-Feb-08 01:30N 38°01' W 009°09'3 6.2
2018-Feb-08 01:00N 38°02' W 009°13'3 6.5
2018-Feb-08 00:30N 38°03' W 009°17'3 6.2
2018-Feb-08 00:00N 38°05' W 009°20'3 6.1
2018-Feb-07 23:30N 38°06' W 009°24'3 6.1
2018-Feb-07 23:00N 38°07' W 009°27'3 6.2
2018-Feb-07 22:30N 38°09' W 009°31'3 6.3
2018-Feb-07 22:00N 38°10' W 009°34'3 6.1
2018-Feb-07 21:31N 38°12' W 009°38'  
2018-Feb-05 13:59N 48°54' W 005°47'10619.4
2018-Feb-05 08:31N 49°48' W 003°26'018.6
2018-Feb-05 08:30N 49°48' W 003°26'1018.6
2018-Feb-05 07:58N 49°52' W 003°12'919.2
2018-Feb-05 07:31N 49°57' W 003°01'1019.6
2018-Feb-05 06:59N 50°00' W 002°46'1121.0
2018-Feb-05 06:28N 50°03' W 002°29'2222.7
2018-Feb-05 05:30N 50°09' W 001°57'1223.6
2018-Feb-05 05:00N 50°12' W 001°39'1223.4
2018-Feb-05 04:31N 50°14' W 001°21'2322.3
2018-Feb-05 03:28N 50°23' W 000°47'1720.6
2018-Feb-05 02:38N 50°26' W 000°20'320.3
2018-Feb-05 02:30N 50°27' W 000°16'1019.8
2018-Feb-05 02:00N 50°29' W 000°02'1019.2
2018-Feb-05 01:30N 50°32' E 000°13'918.2
2018-Feb-05 01:00N 50°35' E 000°26'816.2
2018-Feb-05 00:30N 50°38' E 000°38'917.3
2018-Feb-05 00:00N 50°43' E 000°49'918.1
2018-Feb-04 23:30N 50°48' E 001°01'918.3
2018-Feb-04 23:00N 50°55' E 001°12'1019.7
2018-Feb-04 22:30N 51°01' E 001°22'1020.7
2018-Feb-04 22:00N 51°08' E 001°35'1020.8
2018-Feb-04 21:30N 51°15' E 001°48'1020.0
2018-Feb-04 21:00N 51°23' E 001°55'1918.7
2018-Feb-04 20:01N 51°38' E 002°14'917.9
2018-Feb-04 19:30N 51°45' E 002°24'11217.6
2018-Feb-04 13:10N 53°09' E 004°23'319.7
2018-Feb-04 13:00N 53°12' E 004°26'12618.1
2018-Feb-04 06:02N 54°02' E 007°42'318.9
2018-Feb-04 05:54N 54°02' E 007°46'718.6
2018-Feb-04 05:30N 54°01' E 007°59'714.9
2018-Feb-04 05:00N 54°00' E 008°11'816.0
2018-Feb-04 04:30N 53°59' E 008°25'918.0
2018-Feb-04 04:00N 53°57' E 008°39'612.3
2018-Feb-04 03:30N 53°51' E 008°45'611.4
2018-Feb-04 03:00N 53°51' E 008°54'612.1
2018-Feb-04 02:30N 53°52' E 009°04'4 8.3
2018-Feb-04 02:01N 53°53' E 009°11'4 8.5
2018-Feb-04 01:31N 53°52' E 009°18'510.6
2018-Feb-04 01:01N 53°47' E 009°23'5 9.4
2018-Feb-04 00:31N 53°43' E 009°28'510.1
2018-Feb-04 00:01N 53°39' E 009°31'612.1
2018-Feb-03 23:31N 53°34' E 009°38'510.2
2018-Feb-03 23:01N 53°34' E 009°47'4 8.7
2018-Feb-03 22:31N 53°32' E 009°54'1 2.0
2018-Feb-03 22:01N 53°32' E 009°55'0 0.0
2018-Feb-03 21:30N 53°32' E 009°55'0 0.0
2018-Feb-03 21:00N 53°32' E 009°55'0 0.0
2018-Feb-03 20:30N 53°32' E 009°55'0 0.0
2018-Feb-03 20:00N 53°32' E 009°55'0 0.0
2018-Feb-03 18:30N 53°32' E 009°55'0 0.0
2018-Feb-03 18:00N 53°32' E 009°55'0 0.0
2018-Feb-03 17:30N 53°32' E 009°55'0 0.0
2018-Feb-03 17:00N 53°32' E 009°55'0 0.0
2018-Feb-03 16:00N 53°32' E 009°55'0 0.0
2018-Feb-03 15:30N 53°32' E 009°55'0 0.0
2018-Feb-03 15:00N 53°32' E 009°55'0 0.0
2018-Feb-03 14:30N 53°32' E 009°55'0 0.0
2018-Feb-03 14:00N 53°32' E 009°55'0 0.0
2018-Feb-03 13:30N 53°32' E 009°55'0 0.0
2018-Feb-03 13:00N 53°32' E 009°55'0 0.0
2018-Feb-03 12:30N 53°32' E 009°55'0 0.0
2018-Feb-03 12:00N 53°32' E 009°55'0 0.0
2018-Feb-03 11:30N 53°32' E 009°55'0 0.0
2018-Feb-03 11:00N 53°32' E 009°55'0 0.0
2018-Feb-03 10:30N 53°32' E 009°55'0 0.0
2018-Feb-03 10:00N 53°32' E 009°55'0 0.0
2018-Feb-03 09:30N 53°32' E 009°55'0 0.0
2018-Feb-03 09:00N 53°32' E 009°55'0 0.0
2018-Feb-03 08:30N 53°32' E 009°55'1 1.3
2018-Feb-03 08:01N 53°32' E 009°54'12 7.7
2018-Feb-03 06:30N 53°36' E 009°36'5 9.8
2018-Feb-03 06:00N 53°40' E 009°31'510.9
2018-Feb-03 05:30N 53°44' E 009°26'611.5
2018-Feb-03 05:00N 53°49' E 009°22'1111.1
2018-Feb-03 04:00N 53°52' E 009°03'714.4
2018-Feb-03 03:30N 53°50' E 008°51'2013.3
2018-Feb-03 02:00N 53°59' E 008°21'713.2
2018-Feb-03 01:30N 53°59' E 008°10'815.5
2018-Feb-03 01:00N 53°58' E 007°57'612.0
2018-Feb-03 00:30N 53°57' E 007°47'12318.1
2018-Feb-02 17:43N 53°12' E 004°35'420.9
2018-Feb-02 17:30N 53°08' E 004°32'1020.3
2018-Feb-02 17:01N 52°60' E 004°22'1020.1
2018-Feb-02 16:30N 52°51' E 004°14'2119.7
2018-Feb-02 15:26N 52°35' E 003°51'1819.0
2018-Feb-02 14:30N 52°19' E 003°37'1019.5
2018-Feb-02 14:01N 52°10' E 003°31'1318.8
2018-Feb-02 13:18N 51°58' E 003°23'618.7
2018-Feb-02 12:59N 51°52' E 003°21'1018.3
2018-Feb-02 12:27N 51°44' E 003°14'612.5
2018-Feb-02 12:01N 51°38' E 003°11'1 1.0
2018-Feb-02 11:30N 51°38' E 003°11'714.3
2018-Feb-02 11:00N 51°31' E 003°07'713.2
2018-Feb-02 10:31N 51°27' E 002°60'611.3
2018-Feb-02 10:00N 51°24' E 003°08'714.2
2018-Feb-02 09:30N 51°24' E 003°19'714.7
2018-Feb-02 09:00N 51°25' E 003°31'4 7.8
2018-Feb-02 08:30N 51°26' E 003°37'612.0
2018-Feb-02 08:01N 51°22' E 003°44'714.8
2018-Feb-02 07:30N 51°23' E 003°56'4 7.5
2018-Feb-02 07:01N 51°23' E 004°02'713.1
2018-Feb-02 06:31N 51°23' E 004°13'510.7
2018-Feb-02 06:00N 51°18' E 004°16'1 2.0
2018-Feb-02 05:30N 51°18' E 004°15'0 0.0
2018-Feb-02 04:59N 51°18' E 004°15'0 0.0
2018-Feb-02 04:29N 51°18' E 004°15'0 0.0
2018-Feb-02 03:56N 51°18' E 004°15'0 0.0
2018-Feb-02 03:30N 51°18' E 004°15'0 0.0
2018-Feb-02 03:00N 51°18' E 004°15'0 0.0
2018-Feb-02 02:30N 51°18' E 004°15'0 0.0
2018-Feb-02 02:00N 51°18' E 004°15'0 0.0
2018-Feb-02 01:30N 51°18' E 004°15'0 0.0
2018-Feb-02 01:01N 51°18' E 004°15'0 0.0
2018-Feb-02 00:30N 51°18' E 004°15'0 0.0
2018-Feb-02 00:00N 51°18' E 004°15'0 0.0
2018-Feb-01 23:30N 51°18' E 004°15'0 0.0
2018-Feb-01 23:00N 51°18' E 004°15'0 0.0
2018-Feb-01 22:00N 51°18' E 004°15'0 0.0
2018-Feb-01 21:30N 51°18' E 004°15'0 0.0
2018-Feb-01 19:30N 51°18' E 004°15'0 0.0
2018-Feb-01 19:01N 51°18' E 004°15'0 0.0
2018-Feb-01 18:30N 51°18' E 004°15'0 0.0
2018-Feb-01 18:00N 51°18' E 004°15'0 0.0
2018-Feb-01 17:30N 51°18' E 004°15'0 0.0
2018-Feb-01 17:00N 51°18' E 004°15'0 0.0
2018-Feb-01 16:31N 51°18' E 004°15'0 0.0
2018-Feb-01 16:00N 51°18' E 004°15'0 0.0
2018-Feb-01 15:30N 51°18' E 004°15'0 0.0
2018-Feb-01 15:00N 51°18' E 004°16'0 0.0
2018-Feb-01 13:30N 51°18' E 004°15'0 0.0
2018-Feb-01 13:00N 51°18' E 004°15'0 0.0
2018-Feb-01 12:30N 51°18' E 004°15'0 0.0
2018-Feb-01 12:00N 51°18' E 004°15'0 0.0
2018-Feb-01 11:00N 51°18' E 004°15'0 0.0
2018-Feb-01 10:30N 51°18' E 004°15'0 0.0
2018-Feb-01 10:00N 51°18' E 004°15'0 0.0
2018-Feb-01 09:30N 51°18' E 004°15'0 0.0
2018-Feb-01 09:00N 51°18' E 004°15'0 0.4
2018-Feb-01 08:30N 51°17' E 004°15'0 0.4
2018-Feb-01 07:25N 51°17' E 004°15'0 0.0
2018-Feb-01 06:58N 51°17' E 004°15'0 0.0
2018-Feb-01 06:28N 51°17' E 004°15'0 0.0
2018-Feb-01 05:58N 51°17' E 004°15'0 0.0
2018-Feb-01 05:22N 51°17' E 004°15'0 0.0
2018-Feb-01 04:55N 51°17' E 004°15'0 0.0
2018-Feb-01 04:25N 51°17' E 004°15'  

Dump ship's entire track history